Time;durP1;ratioP1;P1;durP2;ratioP2;P2;SDS_P1;SDS_P2;PMS_P1;PMS_P2;Temp;Humidity;BMP_temperature;BMP_pressure;BME280_temperature;BME280_humidity;BME280_pressure;Samples;Min_cycle;Max_cycle;Signal;HPM_P1;HPM_P2
2023/09/22 00:00:11;;;;;;;0.95;0.60;;;;;;;17.20;49.09;99513.28;4872748;29;20065;-76
2023/09/22 00:02:42;;;;;;;1.77;0.77;;;;;;;17.20;48.58;99515.19;4875379;29;21283;-75
2023/09/22 00:05:12;;;;;;;1.50;0.80;;;;;;;17.17;48.88;99519.22;4873870;29;20075;-77
2023/09/22 00:07:40;;;;;;;1.40;0.80;;;;;;;17.15;48.89;99521.38;4856981;29;20160;-76
2023/09/22 00:10:09;;;;;;;2.17;0.90;;;;;;;17.16;48.73;99534.09;4871338;29;20067;-75
2023/09/22 00:12:37;;;;;;;1.38;0.70;;;;;;;17.13;48.72;99526.25;4859400;29;20598;-76
2023/09/22 00:15:05;;;;;;;1.27;0.75;;;;;;;17.14;48.94;99527.09;4872898;29;20120;-77
2023/09/22 00:17:35;;;;;;;1.50;0.73;;;;;;;17.13;48.83;99534.53;4859166;29;21331;-77
2023/09/22 00:20:08;;;;;;;1.15;0.73;;;;;;;17.13;48.22;99534.53;4859245;29;20421;-77
2023/09/22 00:22:36;;;;;;;1.27;0.80;;;;;;;17.08;48.14;99537.06;4876365;29;20063;-76
2023/09/22 00:25:05;;;;;;;1.77;0.90;;;;;;;17.09;48.27;99538.75;4875750;29;20507;-77
2023/09/22 00:27:32;;;;;;;1.00;0.60;;;;;;;17.08;48.17;99547.25;4876566;29;20416;-76
2023/09/22 00:30:02;;;;;;;1.90;0.68;;;;;;;17.09;47.79;99551.72;4860229;29;20049;-77
2023/09/22 00:32:29;;;;;;;0.95;0.60;;;;;;;17.05;48.24;99548.56;4861499;29;20618;-77
2023/09/22 00:34:58;;;;;;;1.10;0.50;;;;;;;17.04;47.93;99555.13;4874510;29;20045;-75
2023/09/22 00:37:29;;;;;;;1.00;0.70;;;;;;;17.04;47.70;99554.28;4876605;29;20478;-75
2023/09/22 00:39:58;;;;;;;1.05;0.60;;;;;;;16.97;48.36;99544.06;4859804;29;20143;-75
2023/09/22 00:42:26;;;;;;;1.02;0.60;;;;;;;16.98;48.02;99545.78;4859794;29;20055;-75
2023/09/22 00:44:54;;;;;;;2.03;0.90;;;;;;;16.97;47.98;99545.97;4872237;29;20056;-75
2023/09/22 00:47:22;;;;;;;0.93;0.52;;;;;;;16.96;47.88;99539.56;4872435;29;20048;-75
2023/09/22 00:49:50;;;;;;;1.17;0.60;;;;;;;16.96;48.08;99547.84;4858762;29;20172;-74
2023/09/22 00:52:19;;;;;;;1.80;0.70;;;;;;;16.94;48.24;99538.91;4874075;29;21164;-75
2023/09/22 00:54:49;;;;;;;1.40;0.70;;;;;;;16.96;48.24;99547.00;4858929;29;20104;-75
2023/09/22 00:57:17;;;;;;;1.13;0.63;;;;;;;16.93;48.15;99547.41;4873033;29;20052;-76
2023/09/22 00:59:47;;;;;;;1.95;0.50;;;;;;;16.94;48.19;99549.09;4859265;29;21348;-77
2023/09/22 01:02:15;;;;;;;1.35;0.68;;;;;;;16.93;48.07;99555.69;4875407;29;20057;-77
2023/09/22 01:04:43;;;;;;;1.52;0.70;;;;;;;16.92;47.55;99553.97;4879674;29;20068;-77
2023/09/22 01:07:12;;;;;;;1.75;0.98;;;;;;;16.91;47.58;99555.03;4876754;29;20063;-77
2023/09/22 01:09:41;;;;;;;1.52;0.80;;;;;;;16.89;47.46;99555.28;4877604;29;21401;-76
2023/09/22 01:12:10;;;;;;;1.58;0.85;;;;;;;16.89;47.19;99555.28;4860984;29;20055;-77
2023/09/22 01:14:38;;;;;;;1.38;0.80;;;;;;;16.86;47.13;99558.44;4860959;29;20053;-76
2023/09/22 01:17:06;;;;;;;1.67;0.93;;;;;;;16.85;47.12;99555.88;4878562;29;20056;-77
2023/09/22 01:19:35;;;;;;;1.45;0.80;;;;;;;16.84;47.34;99560.53;4863073;29;20056;-77
2023/09/22 01:22:05;;;;;;;1.30;0.80;;;;;;;16.85;47.71;99577.97;4877839;29;20068;-77
2023/09/22 01:24:33;;;;;;;1.73;0.80;;;;;;;16.81;47.04;99571.19;4862101;29;20048;-76
2023/09/22 01:27:02;;;;;;;1.77;1.10;;;;;;;16.82;47.42;99561.84;4859865;29;20065;-75
2023/09/22 01:29:30;;;;;;;3.00;0.93;;;;;;;16.80;47.46;99564.78;4878903;29;21158;-77
2023/09/22 01:31:58;;;;;;;1.98;1.00;;;;;;;16.79;47.38;99567.75;4860702;29;20516;-77
2023/09/22 01:34:26;;;;;;;1.83;1.00;;;;;;;16.78;47.50;99566.06;4877942;29;20045;-76
2023/09/22 01:36:54;;;;;;;1.90;1.30;;;;;;;16.79;47.04;99567.75;4860287;29;20052;-76
2023/09/22 01:39:24;;;;;;;1.98;0.90;;;;;;;16.79;47.44;99573.28;4876901;29;20062;-76
2023/09/22 01:41:52;;;;;;;2.85;1.02;;;;;;;16.77;46.95;99572.63;4877971;29;20056;-76
2023/09/22 01:44:20;;;;;;;2.72;0.95;;;;;;;16.76;47.52;99577.31;4861329;29;20748;-76
2023/09/22 01:46:48;;;;;;;2.40;1.00;;;;;;;16.75;47.41;99577.50;4877497;29;20075;-76
2023/09/22 01:49:16;;;;;;;2.03;1.08;;;;;;;16.74;47.83;99582.22;4860231;29;20147;-76
2023/09/22 01:51:44;;;;;;;2.47;1.20;;;;;;;16.72;47.07;99578.78;4877068;29;20081;-75
2023/09/22 01:54:12;;;;;;;3.00;1.20;;;;;;;16.72;47.81;99578.78;4859192;29;20553;-75
2023/09/22 01:56:41;;;;;;;2.47;1.30;;;;;;;16.73;47.46;99580.50;4858457;29;20112;-77
2023/09/22 01:59:09;;;;;;;1.80;1.00;;;;;;;16.70;47.24;99583.66;4859481;29;20059;-75
2023/09/22 02:01:37;;;;;;;3.10;1.23;;;;;;;16.70;47.62;99582.81;4874553;29;20608;-76
2023/09/22 02:04:05;;;;;;;2.50;1.00;;;;;;;16.69;47.52;99578.34;4859414;29;20538;-76
2023/09/22 02:06:33;;;;;;;1.42;1.00;;;;;;;16.66;47.44;99578.75;4876409;29;21260;-76
2023/09/22 02:09:03;;;;;;;2.25;1.10;;;;;;;16.64;47.17;99581.72;4875557;29;20049;-77
2023/09/22 02:11:31;;;;;;;1.60;0.95;;;;;;;16.62;47.69;99586.59;4859890;29;20441;-76
2023/09/22 02:14:01;;;;;;;2.28;1.00;;;;;;;16.62;47.48;99594.88;4861666;29;20136;-75
2023/09/22 02:16:29;;;;;;;1.88;0.90;;;;;;;16.58;47.69;99591.66;4862124;29;21069;-75
2023/09/22 02:18:57;;;;;;;2.22;1.13;;;;;;;16.57;47.51;99587.22;4863670;29;20060;-75
2023/09/22 02:21:27;;;;;;;1.80;1.00;;;;;;;16.55;47.39;99583.81;4879009;29;20052;-77
2023/09/22 02:23:55;;;;;;;2.40;0.90;;;;;;;16.54;46.98;99584.00;4863219;29;20063;-76
2023/09/22 02:26:23;;;;;;;2.05;1.13;;;;;;;16.51;47.30;99588.00;4861157;29;20445;-75
2023/09/22 02:28:51;;;;;;;2.17;0.93;;;;;;;16.50;47.40;99580.78;4880446;29;20106;-76
2023/09/22 02:31:21;;;;;;;2.35;1.00;;;;;;;16.51;47.05;99579.72;4914529;23;20594;-76
2023/09/22 02:33:49;;;;;;;2.00;1.10;;;;;;;16.47;47.32;99586.72;4931282;29;20060;-76
2023/09/22 02:36:17;;;;;;;2.42;0.90;;;;;;;16.47;47.13;99589.50;4916710;29;20486;-76
2023/09/22 02:38:45;;;;;;;1.75;1.10;;;;;;;16.45;47.57;99593.50;4916218;29;20593;-76
2023/09/22 02:41:15;;;;;;;2.08;1.10;;;;;;;16.45;47.52;99590.75;4929213;29;20056;-76
2023/09/22 02:43:43;;;;;;;2.42;1.30;;;;;;;16.44;47.33;99583.50;4927725;29;20062;-76
2023/09/22 02:46:11;;;;;;;1.23;0.98;;;;;;;16.42;47.38;99575.41;4915675;29;20048;-76
2023/09/22 02:48:40;;;;;;;2.47;1.02;;;;;;;16.43;47.15;99585.41;4930442;29;20051;-76
2023/09/22 02:51:08;;;;;;;1.98;1.00;;;;;;;16.39;47.45;99588.81;4914792;29;20998;-77
2023/09/22 02:53:36;;;;;;;2.63;1.17;;;;;;;16.38;47.10;99590.72;4914116;29;20047;-76
2023/09/22 02:56:05;;;;;;;2.67;1.17;;;;;;;16.38;47.28;99592.63;4928226;29;20047;-76
2023/09/22 02:58:34;;;;;;;2.30;1.00;;;;;;;16.37;47.00;99590.91;4917628;29;20043;-76
2023/09/22 03:01:08;;;;;;;1.98;1.10;;;;;;;16.36;47.21;99597.47;4916078;29;20512;-76
2023/09/22 03:03:37;;;;;;;2.08;1.08;;;;;;;16.34;46.96;99596.81;4917196;29;20058;-77
2023/09/22 03:06:07;;;;;;;2.53;1.00;;;;;;;16.34;47.24;99594.91;4912715;29;20048;-76
2023/09/22 03:08:35;;;;;;;2.15;1.05;;;;;;;16.31;46.86;99586.19;4913833;29;20460;-76
2023/09/22 03:11:03;;;;;;;1.85;0.90;;;;;;;16.29;47.03;99596.59;4912177;29;20039;-76
2023/09/22 03:13:31;;;;;;;1.77;0.90;;;;;;;16.27;46.82;99594.03;4913979;29;20051;-76
2023/09/22 03:16:00;;;;;;;1.63;0.88;;;;;;;16.25;46.97;99594.22;4914364;29;20051;-76
2023/09/22 03:18:28;;;;;;;1.20;0.77;;;;;;;16.22;47.09;99578.06;4914078;29;20070;-76
2023/09/22 03:20:56;;;;;;;2.28;1.00;;;;;;;16.21;47.14;99587.41;4911856;29;20048;-77
2023/09/22 03:23:26;;;;;;;2.53;1.17;;;;;;;16.22;47.39;99582.75;4916348;29;20383;-76
2023/09/22 03:25:53;;;;;;;1.70;1.20;;;;;;;16.18;46.97;99593.31;4924560;29;20055;-77
2023/09/22 03:28:21;;;;;;;2.40;1.10;;;;;;;16.17;46.91;99583.34;4911515;29;20056;-78
2023/09/22 03:30:49;;;;;;;2.38;1.05;;;;;;;16.17;47.34;99590.75;4910818;29;20166;-77
2023/09/22 03:33:17;;;;;;;2.35;1.13;;;;;;;16.15;46.97;99588.19;4914606;29;20143;-77
2023/09/22 03:35:46;;;;;;;1.63;1.10;;;;;;;16.17;47.02;99588.00;4927704;28;20692;-77
2023/09/22 03:38:15;;;;;;;2.47;1.23;;;;;;;16.15;47.36;99585.44;4913587;29;20590;-77
2023/09/22 03:40:44;;;;;;;2.75;1.25;;;;;;;16.16;47.50;99595.44;4916108;29;20527;-77
2023/09/22 03:43:12;;;;;;;1.85;1.20;;;;;;;16.13;46.93;99589.44;4928249;29;20519;-77
2023/09/22 03:45:40;;;;;;;1.80;1.17;;;;;;;16.11;46.44;99580.50;4926348;28;20135;-77
2023/09/22 03:48:08;;;;;;;2.60;1.33;;;;;;;16.09;46.68;99579.84;4914792;29;20048;-77
2023/09/22 03:50:36;;;;;;;1.48;0.93;;;;;;;16.07;46.80;99580.06;4914239;29;20685;-77
2023/09/22 03:53:04;;;;;;;1.70;1.20;;;;;;;16.05;46.92;99581.31;4916312;29;20389;-77
2023/09/22 03:55:32;;;;;;;1.98;1.10;;;;;;;16.04;46.86;99576.84;4913824;29;21044;-77
2023/09/22 03:58:02;;;;;;;3.88;1.23;;;;;;;16.04;47.32;99583.22;4912824;29;20078;-77
2023/09/22 04:00:32;;;;;;;2.78;1.30;;;;;;;16.01;46.66;99578.09;4913140;29;20159;-77
2023/09/22 04:03:00;;;;;;;1.65;1.05;;;;;;;16.00;47.14;99584.66;4927176;29;20162;-76
2023/09/22 04:05:29;;;;;;;3.53;1.20;;;;;;;15.99;46.64;99584.88;4913191;29;20546;-77
2023/09/22 04:07:57;;;;;;;4.30;1.30;;;;;;;15.96;46.89;99586.13;4913769;29;20082;-76
2023/09/22 04:10:25;;;;;;;2.63;1.10;;;;;;;15.96;46.93;99582.50;4926608;29;20071;-77
2023/09/22 04:12:53;;;;;;;2.38;1.20;;;;;;;15.92;46.27;99579.28;4914894;29;20070;-77
2023/09/22 04:15:23;;;;;;;2.75;1.27;;;;;;;15.93;46.92;99578.25;4913668;29;20043;-77
2023/09/22 04:17:51;;;;;;;2.05;1.05;;;;;;;15.89;46.87;99580.56;4913597;29;20043;-76
2023/09/22 04:20:28;;;;;;;2.85;1.20;;;;;;;15.88;47.08;99584.38;4929043;29;20223;-76
2023/09/22 04:22:58;;;;;;;1.63;1.10;;;;;;;15.87;47.16;99595.59;4926436;29;20059;-77
2023/09/22 04:25:31;;;;;;;2.83;1.30;;;;;;;15.86;47.33;99585.63;4913379;29;20051;-77
2023/09/22 04:28:07;;;;;;;3.20;1.35;;;;;;;15.86;47.40;99597.50;4912851;29;20934;-77
2023/09/22 04:30:38;;;;;;;2.25;1.10;;;;;;;15.86;46.76;99599.41;4913533;29;20691;-78
2023/09/22 04:33:06;;;;;;;2.67;1.17;;;;;;;15.83;46.91;99603.44;4924729;29;20051;-76
2023/09/22 04:35:34;;;;;;;1.70;1.10;;;;;;;15.84;47.02;99612.53;4912688;29;20055;-79
2023/09/22 04:38:04;;;;;;;3.38;1.20;;;;;;;15.83;46.80;99624.66;4924970;29;20523;-75
2023/09/22 04:40:36;;;;;;;3.25;1.25;;;;;;;15.83;46.92;99631.03;4911969;29;20252;-79
2023/09/22 04:43:07;;;;;;;2.03;1.08;;;;;;;15.79;46.68;99646.25;4910401;29;20047;-78
2023/09/22 04:45:40;;;;;;;2.08;1.23;;;;;;;15.84;46.90;99643.75;4908566;29;20114;-78
2023/09/22 04:48:08;;;;;;;1.73;1.10;;;;;;;15.81;47.23;99649.69;4909567;29;20091;-78
2023/09/22 04:50:37;;;;;;;2.30;1.30;;;;;;;15.83;47.10;99668.78;4917542;29;20403;-78
2023/09/22 04:53:05;;;;;;;2.92;1.15;;;;;;;15.83;46.65;99660.53;4907913;29;20056;-78
2023/09/22 04:55:35;;;;;;;2.88;1.45;;;;;;;15.83;47.04;99658.63;4907138;29;20047;-78
2023/09/22 04:58:04;;;;;;;2.70;1.30;;;;;;;15.82;47.41;99648.63;4907423;29;20484;-78
2023/09/22 05:00:33;;;;;;;2.92;1.20;;;;;;;15.83;46.72;99636.53;4922870;29;20074;-78
2023/09/22 05:03:05;;;;;;;2.47;1.13;;;;;;;15.86;46.96;99638.03;4912910;29;20062;-78
2023/09/22 05:05:33;;;;;;;1.80;1.00;;;;;;;15.83;47.22;99633.78;4923873;29;20054;-78
2023/09/22 05:08:01;;;;;;;3.42;1.35;;;;;;;15.84;47.23;99635.47;4925304;29;20051;-77
2023/09/22 05:10:31;;;;;;;3.35;1.45;;;;;;;15.85;46.78;99636.31;4913500;29;20055;-78
2023/09/22 05:13:00;;;;;;;2.75;1.20;;;;;;;15.84;46.85;99631.84;4918581;29;20066;-77
2023/09/22 05:15:29;;;;;;;4.25;1.52;;;;;;;15.85;47.20;99641.84;4926845;29;20047;-78
2023/09/22 05:17:57;;;;;;;2.90;1.30;;;;;;;15.82;47.13;99640.34;4921682;29;20443;-78
2023/09/22 05:20:26;;;;;;;2.65;1.10;;;;;;;15.84;47.31;99646.50;4912694;29;20055;-78
2023/09/22 05:22:54;;;;;;;3.30;1.20;;;;;;;15.81;46.99;99659.84;4925383;29;20067;-78
2023/09/22 05:25:22;;;;;;;2.72;1.35;;;;;;;15.79;46.95;99659.19;4913584;29;20138;-77
2023/09/22 05:27:51;;;;;;;2.38;1.20;;;;;;;15.78;46.80;99657.47;4912372;29;20138;-77
2023/09/22 05:30:21;;;;;;;2.17;1.25;;;;;;;15.78;47.27;99668.50;4923440;29;20075;-78
2023/09/22 05:32:50;;;;;;;2.70;1.38;;;;;;;15.76;46.55;99670.59;4911414;29;20067;-78
2023/09/22 05:35:18;;;;;;;3.05;1.15;;;;;;;15.75;47.35;99660.66;4911051;29;20464;-77
2023/09/22 05:37:47;;;;;;;2.80;1.20;;;;;;;15.77;46.45;99653.88;4912834;29;20187;-77
2023/09/22 05:40:16;;;;;;;2.85;1.65;;;;;;;15.73;47.36;99643.44;4924159;29;20059;-77
2023/09/22 05:42:44;;;;;;;3.13;1.33;;;;;;;15.73;47.03;99654.47;4913293;29;20051;-77
2023/09/22 05:45:12;;;;;;;1.98;1.08;;;;;;;15.73;46.90;99660.84;4910990;29;20058;-78
2023/09/22 05:47:40;;;;;;;3.55;1.40;;;;;;;15.71;47.47;99654.66;4923994;29;20079;-78
2023/09/22 05:50:11;;;;;;;3.60;1.40;;;;;;;15.72;46.96;99655.53;4929439;29;20054;-78
2023/09/22 05:52:39;;;;;;;3.95;1.20;;;;;;;15.72;46.93;99664.66;4929579;29;20064;-78
2023/09/22 05:55:13;;;;;;;3.15;1.23;;;;;;;15.73;47.14;99668.25;4915930;29;20117;-78
2023/09/22 05:57:41;;;;;;;3.65;1.30;;;;;;;15.71;46.92;99665.69;4925619;29;20064;-77
2023/09/22 06:00:15;;;;;;;2.67;1.05;;;;;;;15.71;47.11;99667.59;4911314;29;20521;-78
2023/09/22 06:02:49;;;;;;;3.05;1.23;;;;;;;15.72;47.23;99670.16;4924904;29;20044;-77
2023/09/22 06:05:18;;;;;;;2.58;1.38;;;;;;;15.69;47.23;99661.41;4910543;29;20060;-78
2023/09/22 06:07:46;;;;;;;2.72;1.38;;;;;;;15.68;47.05;99660.56;4923521;29;20053;-77
2023/09/22 06:10:16;;;;;;;2.47;1.20;;;;;;;15.70;47.19;99663.13;4912308;29;20056;-77
2023/09/22 06:12:44;;;;;;;2.85;1.38;;;;;;;15.67;46.84;99653.34;4903403;29;20503;-77
2023/09/22 06:15:13;;;;;;;2.63;1.50;;;;;;;15.68;46.67;99654.19;4909762;29;20059;-78
2023/09/22 06:17:41;;;;;;;2.35;1.23;;;;;;;15.68;46.82;99662.47;4921856;29;20063;-78
2023/09/22 06:20:15;;;;;;;2.25;1.30;;;;;;;15.68;47.13;99659.69;4920760;29;20134;-77
2023/09/22 06:22:45;;;;;;;5.32;1.60;;;;;;;15.68;47.45;99665.22;4921198;29;20072;-77
2023/09/22 06:25:14;;;;;;;4.00;1.65;;;;;;;15.66;46.99;99668.19;4910466;29;20341;-77
2023/09/22 06:27:44;;;;;;;3.13;1.40;;;;;;;15.68;47.37;99679.88;4918960;29;20162;-78
2023/09/22 06:30:13;;;;;;;2.65;1.10;;;;;;;15.67;47.08;99680.09;4917748;29;21003;-77
2023/09/22 06:32:42;;;;;;;3.15;1.20;;;;;;;15.68;47.30;99677.09;4917524;29;20060;-77
2023/09/22 06:35:10;;;;;;;1.98;1.00;;;;;;;15.68;47.24;99673.50;4920369;29;20058;-77
2023/09/22 06:37:41;;;;;;;2.90;1.38;;;;;;;15.68;46.74;99671.59;4917960;29;20935;-77
2023/09/22 06:40:12;;;;;;;2.05;1.20;;;;;;;15.70;47.17;99675.00;4909462;29;20471;-77
2023/09/22 06:42:44;;;;;;;1.80;1.10;;;;;;;15.69;47.63;99680.72;4921149;29;20059;-77
2023/09/22 06:45:15;;;;;;;2.33;1.20;;;;;;;15.71;47.89;99685.00;4919637;29;20062;-77
2023/09/22 06:47:44;;;;;;;3.72;1.20;;;;;;;15.78;47.76;99685.91;4909974;29;20079;-78
2023/09/22 06:50:13;;;;;;;2.28;1.20;;;;;;;15.84;48.17;99693.41;4920824;29;21270;-77
2023/09/22 06:52:42;;;;;;;6.28;1.73;;;;;;;15.91;49.08;99676.94;4912048;29;20067;-77
2023/09/22 06:55:13;;;;;;;2.85;1.10;;;;;;;16.03;49.18;99671.72;4922080;29;20107;-77
2023/09/22 06:57:42;;;;;;;3.53;1.60;;;;;;;16.17;50.09;99687.38;4908928;29;20345;-77
2023/09/22 07:00:18;;;;;;;1.90;1.15;;;;;;;16.37;50.21;99684.78;4919420;29;20519;-77
2023/09/22 07:02:48;;;;;;;2.35;1.17;;;;;;;16.59;49.57;99686.44;4919252;29;20524;-76
2023/09/22 07:05:18;;;;;;;1.63;1.00;;;;;;;16.78;50.09;99688.47;4924549;29;20070;-77
2023/09/22 07:07:47;;;;;;;2.33;1.23;;;;;;;16.99;49.45;99682.88;4903798;29;20479;-77
2023/09/22 07:10:16;;;;;;;2.20;1.20;;;;;;;17.25;48.89;99695.97;4910102;29;20051;-77
2023/09/22 07:12:44;;;;;;;2.03;1.10;;;;;;;17.45;48.71;99692.44;4912449;29;20047;-77
2023/09/22 07:15:12;;;;;;;2.58;1.02;;;;;;;17.65;48.28;99696.13;4926325;28;21611;-77
2023/09/22 07:17:42;;;;;;;2.08;1.08;;;;;;;17.87;47.89;99713.47;4922735;29;20516;-65
2023/09/22 07:20:14;;;;;;;2.50;1.25;;;;;;;18.03;46.34;99722.22;4916746;29;20059;-65
2023/09/22 07:22:42;;;;;;;3.40;1.33;;;;;;;18.12;45.54;99734.81;4919514;29;20062;-65
2023/09/22 07:25:11;;;;;;;2.80;1.20;;;;;;;18.19;44.92;99750.56;4918483;29;20051;-65
2023/09/22 07:27:40;;;;;;;2.88;1.10;;;;;;;18.21;44.18;99754.00;4915288;29;20634;-64
2023/09/22 07:30:10;;;;;;;2.35;1.10;;;;;;;18.21;43.89;99751.22;4915463;29;20055;-64
2023/09/22 07:32:39;;;;;;;2.80;1.30;;;;;;;18.17;43.97;99761.84;4909480;29;20083;-64
2023/09/22 07:35:08;;;;;;;2.35;1.00;;;;;;;18.13;43.55;99744.84;4908566;29;20546;-65
2023/09/22 07:37:37;;;;;;;2.47;1.05;;;;;;;18.10;43.54;99738.84;4909949;29;20047;-64
2023/09/22 07:40:08;;;;;;;1.80;1.00;;;;;;;18.03;43.17;99746.28;4908460;29;20083;-64
2023/09/22 07:42:39;;;;;;;2.30;1.00;;;;;;;17.94;43.37;99755.84;4910092;29;20047;-65
2023/09/22 07:45:08;;;;;;;3.40;1.30;;;;;;;17.90;43.11;99760.09;4905256;29;20690;-64
2023/09/22 07:47:37;;;;;;;2.75;1.15;;;;;;;17.84;43.50;99758.16;4912607;29;20062;-66
2023/09/22 07:50:06;;;;;;;2.50;0.98;;;;;;;17.78;43.17;99759.84;4912301;29;20427;-65
2023/09/22 07:52:34;;;;;;;1.92;1.00;;;;;;;17.72;43.36;99766.19;4912088;29;20055;-63
2023/09/22 07:55:06;;;;;;;1.73;1.02;;;;;;;17.69;43.01;99755.53;4912665;29;21030;-61
2023/09/22 07:57:35;;;;;;;1.95;1.10;;;;;;;17.61;43.50;99751.03;4915857;29;20052;-63
2023/09/22 08:00:06;;;;;;;2.38;0.88;;;;;;;17.59;43.49;99747.63;4918203;29;20059;-64
2023/09/22 08:02:38;;;;;;;2.40;1.02;;;;;;;17.56;43.51;99749.97;4917789;29;20056;-65
2023/09/22 08:05:07;;;;;;;1.83;0.90;;;;;;;17.55;43.57;99756.56;4916523;29;20099;-65
2023/09/22 08:07:35;;;;;;;1.38;0.85;;;;;;;17.51;43.58;99755.25;4928318;29;20048;-67
2023/09/22 08:10:06;;;;;;;2.40;0.90;;;;;;;17.51;43.87;99756.09;4929969;29;20059;-64
2023/09/22 08:12:35;;;;;;;2.30;0.85;;;;;;;17.47;43.75;99760.34;4919026;29;20685;-64
2023/09/22 08:15:03;;;;;;;1.60;0.98;;;;;;;17.47;43.82;99767.78;4920180;28;20150;-65
2023/09/22 08:17:31;;;;;;;1.67;0.90;;;;;;;17.47;43.59;99765.03;4913483;29;20052;-63
2023/09/22 08:20:00;;;;;;;2.13;0.90;;;;;;;17.47;43.76;99765.03;4912527;29;20063;-64
2023/09/22 08:22:28;;;;;;;1.73;0.98;;;;;;;17.46;43.83;99766.94;4918209;29;20484;-64
2023/09/22 08:24:56;;;;;;;1.92;0.95;;;;;;;17.48;43.95;99772.28;4916240;29;20171;-65
2023/09/22 08:27:29;;;;;;;2.40;1.02;;;;;;;17.50;43.62;99762.69;4912916;29;20820;-65
2023/09/22 08:29:58;;;;;;;3.13;0.70;;;;;;;17.50;43.71;99765.44;4914912;29;20159;-64
2023/09/22 08:32:26;;;;;;;1.55;0.82;;;;;;;17.53;43.33;99776.13;4916170;29;20075;-63
2023/09/22 08:34:55;;;;;;;1.83;0.80;;;;;;;17.56;43.29;99769.31;4917901;29;20114;-64
2023/09/22 08:37:23;;;;;;;2.10;0.77;;;;;;;17.59;43.69;99769.75;4914446;29;20079;-65
2023/09/22 08:39:52;;;;;;;1.85;0.93;;;;;;;17.62;43.63;99768.50;4916892;29;20060;-65
2023/09/22 08:42:20;;;;;;;1.83;0.80;;;;;;;17.66;43.50;99754.03;4915625;29;20154;-64
2023/09/22 08:44:49;;;;;;;2.22;0.80;;;;;;;17.72;43.39;99758.75;4914134;29;20447;-65
2023/09/22 08:47:19;;;;;;;1.40;0.68;;;;;;;17.77;42.95;99750.69;4916604;29;20051;-64
2023/09/22 08:49:48;;;;;;;1.30;0.70;;;;;;;17.81;43.05;99750.28;4905500;29;20142;-65
2023/09/22 08:52:16;;;;;;;1.48;0.70;;;;;;;17.85;43.32;99751.56;4914663;29;20083;-66
2023/09/22 08:54:47;;;;;;;0.65;0.65;;;;;;;17.90;42.64;99744.34;4917813;29;20134;-67
2023/09/22 08:57:17;;;;;;;1.60;0.80;;;;;;;17.92;42.59;99752.44;4916809;29;20055;-66
2023/09/22 08:59:45;;;;;;;2.10;0.80;;;;;;;17.94;42.68;99751.16;4918363;29;20135;-65
2023/09/22 09:02:15;;;;;;;2.13;0.80;;;;;;;17.99;42.75;99756.06;4918544;29;20487;-75
2023/09/22 09:04:44;;;;;;;1.45;0.70;;;;;;;17.99;42.52;99750.53;4924955;29;20169;-76
2023/09/22 09:07:16;;;;;;;2.13;0.75;;;;;;;18.03;42.08;99740.75;4919441;29;20087;-74
2023/09/22 09:09:45;;;;;;;;;;;;;;;17.70;43.08;99744.25;4922550;29;20099;-74
2023/09/22 09:12:13;;;;;;;2.55;0.65;;;;;;;17.94;42.25;99745.63;4920615;29;19930;-74
2023/09/22 09:14:43;;;;;;;1.65;0.60;;;;;;;17.98;41.61;99748.81;4909855;29;20066;-75
2023/09/22 09:17:22;;;;;;;1.63;0.65;;;;;;;17.99;40.52;99745.00;4920873;29;20472;-75
2023/09/22 09:19:55;;;;;;;1.85;0.73;;;;;;;17.96;41.07;99739.91;4913480;29;20064;-75
2023/09/22 09:22:31;;;;;;;1.17;0.50;;;;;;;17.93;42.06;99745.84;4908665;29;20142;-78
2023/09/22 09:24:59;;;;;;;1.13;0.60;;;;;;;17.96;42.04;99740.75;4910305;29;20500;-77
2023/09/22 09:27:28;;;;;;;1.25;0.60;;;;;;;18.00;42.05;99750.31;4908891;29;20043;-76
2023/09/22 09:29:57;;;;;;;1.73;0.80;;;;;;;18.05;41.60;99749.72;4922764;29;20047;-77
2023/09/22 09:32:29;;;;;;;1.95;0.73;;;;;;;18.10;41.61;99756.31;4907810;29;20510;-76
2023/09/22 09:34:58;;;;;;;1.52;0.73;;;;;;;18.11;41.63;99751.63;4909551;29;20206;-76
2023/09/22 09:37:26;;;;;;;0.82;0.57;;;;;;;18.16;41.32;99757.38;4917070;29;20060;-75
2023/09/22 09:39:56;;;;;;;1.98;0.85;;;;;;;18.20;41.03;99757.81;4910164;29;20059;-76
2023/09/22 09:42:26;;;;;;;1.65;0.82;;;;;;;18.20;41.28;99758.69;4908424;29;20149;-75
2023/09/22 09:44:57;;;;;;;1.60;0.73;;;;;;;18.25;40.92;99761.66;4919583;29;20053;-75
2023/09/22 09:47:30;;;;;;;1.08;0.80;;;;;;;18.29;40.95;99759.34;4908322;29;20062;-75
2023/09/22 09:49:59;;;;;;;1.35;0.73;;;;;;;18.31;41.05;99769.13;4911655;29;20520;-75
2023/09/22 09:52:37;;;;;;;2.13;0.88;;;;;;;18.36;40.70;99762.97;4905260;29;20079;-74
2023/09/22 09:55:09;;;;;;;1.95;0.80;;;;;;;18.42;40.00;99764.88;4916634;29;20062;-75
2023/09/22 09:57:39;;;;;;;1.77;0.85;;;;;;;18.44;40.50;99768.28;4913566;29;20195;-75
2023/09/22 10:00:14;;;;;;;1.00;0.60;;;;;;;18.51;40.16;99780.25;4903963;29;20051;-73
2023/09/22 10:02:45;;;;;;;1.52;0.70;;;;;;;18.57;39.69;99768.31;4914801;29;20058;-76
2023/09/22 10:05:15;;;;;;;2.17;0.88;;;;;;;18.62;39.96;99778.78;4916432;29;20054;-73
2023/09/22 10:07:50;;;;;;;1.73;0.68;;;;;;;18.66;39.70;99778.13;4916214;29;20066;-74
2023/09/22 10:10:20;;;;;;;1.88;0.73;;;;;;;18.71;39.80;99783.91;4916660;29;20483;-73
2023/09/22 10:12:49;;;;;;;2.60;0.73;;;;;;;18.77;39.50;99780.25;4915810;29;20146;-73
2023/09/22 10:15:54;;;;;;;1.60;0.70;;;;;;;18.83;38.94;99778.53;4916989;29;20047;-74
2023/09/22 10:18:44;;;;;;;1.65;0.75;;;;;;;18.88;39.21;99778.78;4916948;29;20134;-74
2023/09/22 10:21:46;;;;;;;1.00;0.60;;;;;;;18.85;38.24;99782.81;4917872;29;20267;-73
2023/09/22 10:24:25;;;;;;;1.48;0.65;;;;;;;18.95;38.20;99781.53;4855998;29;20053;-78
2023/09/22 10:27:23;;;;;;;1.13;0.60;;;;;;;18.87;38.27;99783.47;4855789;29;20067;-74
2023/09/22 10:29:53;;;;;;;1.55;0.70;;;;;;;18.92;38.50;99791.13;4854854;29;20167;-74
2023/09/22 10:32:27;;;;;;;0.95;0.60;;;;;;;18.93;37.40;99789.22;4903824;29;20078;-74
2023/09/22 10:35:01;;;;;;;2.65;0.68;;;;;;;18.89;38.38;99788.78;4907373;29;20407;-74
2023/09/22 10:37:31;;;;;;;0.90;0.52;;;;;;;18.86;38.10;99795.63;4919463;29;20052;-74
2023/09/22 10:40:08;;;;;;;1.73;0.68;;;;;;;18.83;38.40;99792.41;4911799;29;20081;-74
2023/09/22 10:42:41;;;;;;;1.65;0.73;;;;;;;18.83;38.15;99807.13;4919860;29;20154;-75
2023/09/22 10:45:10;;;;;;;;;;;;;;;18.51;38.76;99799.66;4920313;29;20058;-74
2023/09/22 10:47:40;;;;;;;1.25;0.60;;;;;;;18.77;38.74;99798.81;4918194;29;20081;-74
2023/09/22 10:50:18;;;;;;;2.28;0.70;;;;;;;18.83;37.82;99812.66;4907773;29;20634;-73
2023/09/22 10:52:52;;;;;;;1.08;0.60;;;;;;;18.84;38.31;99811.59;4917067;29;20055;-74
2023/09/22 10:55:30;;;;;;;1.42;0.63;;;;;;;18.86;37.84;99809.47;4914719;29;20055;-74
2023/09/22 10:58:00;;;;;;;2.13;0.70;;;;;;;18.86;38.56;99806.72;4908251;29;20530;-73
2023/09/22 11:00:28;;;;;;;1.92;0.55;;;;;;;18.88;38.26;99814.81;4914056;29;20082;-74
2023/09/22 11:03:04;;;;;;;2.42;0.77;;;;;;;18.94;37.85;99815.88;4917422;29;20491;-74
2023/09/22 11:05:34;;;;;;;1.50;0.60;;;;;;;18.94;37.99;99816.72;4916643;28;20052;-74
2023/09/22 11:08:12;;;;;;;1.70;0.70;;;;;;;18.97;37.14;99819.03;4916556;29;20059;-74
2023/09/22 11:10:43;;;;;;;1.15;0.60;;;;;;;18.97;38.00;99821.81;4918454;29;20059;-74
2023/09/22 11:13:13;;;;;;;1.92;0.75;;;;;;;19.00;37.92;99812.22;4908624;29;20048;-73
2023/09/22 11:15:49;;;;;;;3.05;0.82;;;;;;;19.04;36.74;99821.84;4914384;29;20047;-74
2023/09/22 11:18:22;;;;;;;1.30;0.60;;;;;;;19.04;36.83;99831.00;4917224;29;20289;-73
2023/09/22 11:20:56;;;;;;;;;;;;;;;18.77;38.20;99830.16;4916363;29;20437;-73
2023/09/22 11:23:25;;;;;;;1.00;0.60;;;;;;;19.02;36.94;99832.28;4917037;29;19930;-74
2023/09/22 11:26:00;;;;;;;1.92;0.80;;;;;;;19.10;36.02;99832.91;4916935;29;20074;-74
2023/09/22 11:28:28;;;;;;;1.20;0.50;;;;;;;19.07;36.74;99835.25;4917728;29;20058;-74
2023/09/22 11:31:06;;;;;;;3.35;0.90;;;;;;;19.11;35.57;99826.31;4916138;29;20059;-73
2023/09/22 11:33:36;;;;;;;1.85;1.02;;;;;;;19.10;36.45;99832.06;4918322;29;20134;-74
2023/09/22 11:36:06;;;;;;;0.95;0.60;;;;;;;19.13;35.98;99824.16;4919435;29;20663;-73
2023/09/22 11:38:39;;;;;;;1.73;0.52;;;;;;;19.14;36.15;99828.63;4908172;29;20048;-74
2023/09/22 11:41:10;;;;;;;1.63;0.57;;;;;;;19.16;36.37;99831.19;4913224;29;20540;-74
2023/09/22 11:43:39;;;;;;;1.15;0.63;;;;;;;19.17;36.18;99828.22;4913250;29;20067;-73
2023/09/22 11:46:09;;;;;;;1.48;0.77;;;;;;;19.19;36.10;99817.75;4908727;29;20047;-73